Alaska Titan — WDE4789 — position and weather

sailwx.info

Track history (hours):
 
Tides and Currents Weather Stations Pressure Air Temp Water Temp Dewpoint Dewpoint Depression Visibility Wind Speed Wind Dir Waves Ship Positions

Alaska Titan

More information available from US FCC via Universal Licensing System and Coast Guard Vessel Documentation Center.

Last reported at 2014-Aug-18 07:32 UTC. Time now 2014-Aug-23 03:37 UTC.
Position N 58°15' W 136°09'.

Length 40 m; draft 6 m.

Type: Tow > 200 m length. MMSI: 367357000.

Date/timePositionNaut miles runAvg speedWind from/ knotsBaromVisibWave heightAir tempDewpointWater temp
2014-Aug-18 07:32N 58°15' W 136°09'7 7.5
2014-Aug-18 06:33N 58°17' W 135°55'  
2014-Aug-15 18:03N 51°28' W 128°11'5 9.4
2014-Aug-15 17:32N 51°26' W 128°05'18 8.8
2014-Aug-15 15:31N 51°10' W 127°51'9 9.4
2014-Aug-15 14:33N 51°04' W 127°41'9 9.2
2014-Aug-15 13:33N 50°58' W 127°30'10 9.6
2014-Aug-15 12:33N 50°51' W 127°18'19 9.0
2014-Aug-15 10:24N 50°41' W 126°52'8 8.9
2014-Aug-15 09:33N 50°36' W 126°43'98 7.5
2014-Aug-14 20:23N 49°40' W 124°36'37 8.7
2014-Aug-14 16:08N 49°20' W 123°49'5 9.1
2014-Aug-14 15:33N 49°17' W 123°42'10 9.8
2014-Aug-14 14:33N 49°10' W 123°31'10 9.7
2014-Aug-14 13:33N 49°04' W 123°20'10 9.8
2014-Aug-14 12:33N 48°57' W 123°09'10 9.9
2014-Aug-14 11:33N 48°51' W 122°57'10 9.5
2014-Aug-14 10:32N 48°45' W 122°46'8 7.7
2014-Aug-14 09:33N 48°37' W 122°44'7 6.6
2014-Aug-14 08:33N 48°31' W 122°44'7 6.5
2014-Aug-14 07:32N 48°24' W 122°44'10 8.3
2014-Aug-14 06:24N 48°15' W 122°48'1511.3
2014-Aug-14 05:04N 48°02' W 122°37'611.2
2014-Aug-14 04:33N 47°57' W 122°32'011.4
2014-Aug-14 04:33N 47°57' W 122°32'10 9.7
2014-Aug-14 03:33N 47°48' W 122°26'0 9.8
2014-Aug-14 03:33N 47°48' W 122°26'10 9.7
2014-Aug-14 02:34N 47°39' W 122°27'0 9.9
2014-Aug-14 02:33N 47°39' W 122°27'5 5.3
2014-Aug-14 01:33N 47°35' W 122°21'0 0.0
2014-Aug-14 01:33N 47°35' W 122°21'0 0.0
2014-Aug-14 00:33N 47°35' W 122°21'0 4.6
2014-Aug-14 00:33N 47°35' W 122°21'0 0.0
2014-Aug-13 23:33N 47°35' W 122°21'0 0.0
2014-Aug-13 23:33N 47°35' W 122°21'0 0.4
2014-Aug-13 22:33N 47°35' W 122°22'0 7.7
2014-Aug-13 22:33N 47°35' W 122°22'2 2.2
2014-Aug-13 21:33N 47°33' W 122°21'0 0.4
2014-Aug-13 21:33N 47°33' W 122°21'1 1.4
2014-Aug-13 20:33N 47°34' W 122°21'0 7.2
2014-Aug-13 20:32N 47°34' W 122°21'  
Track history (hours):
 
Tides and Currents Weather Stations Pressure Air Temp Water Temp Dewpoint Dewpoint Depression Visibility Wind Speed Wind Dir Waves Ship Positions

Alaska Titan

More information available from US FCC via Universal Licensing System and Coast Guard Vessel Documentation Center.

Last reported at 2014-Aug-18 07:32 UTC. Time now 2014-Aug-23 03:37 UTC.
Position N 58°15' W 136°09'.

Length 40 m; draft 6 m.

Type: Tow > 200 m length. MMSI: 367357000.

Date/timePositionNaut miles runAvg speedWind from/ knotsBaromVisibWave heightAir tempDewpointWater temp
2014-Aug-18 07:32N 58°15' W 136°09'7 7.5
2014-Aug-18 06:33N 58°17' W 135°55'  
2014-Aug-15 18:03N 51°28' W 128°11'5 9.4
2014-Aug-15 17:32N 51°26' W 128°05'18 8.8
2014-Aug-15 15:31N 51°10' W 127°51'9 9.4
2014-Aug-15 14:33N 51°04' W 127°41'9 9.2
2014-Aug-15 13:33N 50°58' W 127°30'10 9.6
2014-Aug-15 12:33N 50°51' W 127°18'19 9.0
2014-Aug-15 10:24N 50°41' W 126°52'8 8.9
2014-Aug-15 09:33N 50°36' W 126°43'98 7.5
2014-Aug-14 20:23N 49°40' W 124°36'37 8.7
2014-Aug-14 16:08N 49°20' W 123°49'5 9.1
2014-Aug-14 15:33N 49°17' W 123°42'10 9.8
2014-Aug-14 14:33N 49°10' W 123°31'10 9.7
2014-Aug-14 13:33N 49°04' W 123°20'10 9.8
2014-Aug-14 12:33N 48°57' W 123°09'10 9.9
2014-Aug-14 11:33N 48°51' W 122°57'10 9.5
2014-Aug-14 10:32N 48°45' W 122°46'8 7.7
2014-Aug-14 09:33N 48°37' W 122°44'7 6.6
2014-Aug-14 08:33N 48°31' W 122°44'7 6.5
2014-Aug-14 07:32N 48°24' W 122°44'10 8.3
2014-Aug-14 06:24N 48°15' W 122°48'1511.3
2014-Aug-14 05:04N 48°02' W 122°37'611.2
2014-Aug-14 04:33N 47°57' W 122°32'011.4
2014-Aug-14 04:33N 47°57' W 122°32'10 9.7
2014-Aug-14 03:33N 47°48' W 122°26'0 9.8
2014-Aug-14 03:33N 47°48' W 122°26'10 9.7
2014-Aug-14 02:34N 47°39' W 122°27'0 9.9
2014-Aug-14 02:33N 47°39' W 122°27'5 5.3
2014-Aug-14 01:33N 47°35' W 122°21'0 0.0
2014-Aug-14 01:33N 47°35' W 122°21'0 0.0
2014-Aug-14 00:33N 47°35' W 122°21'0 4.6
2014-Aug-14 00:33N 47°35' W 122°21'0 0.0
2014-Aug-13 23:33N 47°35' W 122°21'0 0.0
2014-Aug-13 23:33N 47°35' W 122°21'0 0.4
2014-Aug-13 22:33N 47°35' W 122°22'0 7.7
2014-Aug-13 22:33N 47°35' W 122°22'2 2.2
2014-Aug-13 21:33N 47°33' W 122°21'0 0.4
2014-Aug-13 21:33N 47°33' W 122°21'1 1.4
2014-Aug-13 20:33N 47°34' W 122°21'0 7.2
2014-Aug-13 20:32N 47°34' W 122°21'  

Dump ship's entire track history